Time;durP1;ratioP1;P1;durP2;ratioP2;P2;SDS_P1;SDS_P2;PMS_P1;PMS_P2;Temp;Humidity;BMP_temperature;BMP_pressure;BME280_temperature;BME280_humidity;BME280_pressure;Samples;Min_cycle;Max_cycle;Signal;HPM_P1;HPM_P2
2022/07/27 00:01:50;;;;;;;8.97;1.67;;;16.90;73.80;;;;;;5252388;28;20275;-44
2022/07/27 00:04:20;;;;;;;9.13;1.30;;;16.90;74.00;;;;;;5255177;28;20185;-45
2022/07/27 00:06:51;;;;;;;1.43;1.10;;;16.90;74.70;;;;;;5265864;28;20459;-44
2022/07/27 00:09:22;;;;;;;4.23;1.87;;;16.90;73.90;;;;;;5261120;28;20204;-44
2022/07/27 00:11:53;;;;;;;3.03;1.63;;;16.90;74.20;;;;;;5264794;28;20573;-45
2022/07/27 00:14:24;;;;;;;3.47;1.30;;;16.90;74.40;;;;;;5273431;28;20435;-45
2022/07/27 00:16:54;;;;;;;6.90;2.80;;;16.80;74.10;;;;;;5261828;28;20723;-44
2022/07/27 00:19:25;;;;;;;2.87;1.70;;;16.80;74.10;;;;;;5261527;28;20220;-45
2022/07/27 00:21:57;;;;;;;1.43;1.27;;;16.80;74.50;;;;;;5261777;28;20601;-45
2022/07/27 00:24:28;;;;;;;4.17;1.70;;;16.80;74.60;;;;;;5267608;28;20177;-45
2022/07/27 00:26:58;;;;;;;4.33;1.50;;;16.70;74.10;;;;;;5262584;28;20482;-45
2022/07/27 00:29:29;;;;;;;3.37;1.50;;;16.70;74.00;;;;;;5259188;28;20205;-45
2022/07/27 00:31:59;;;;;;;6.07;1.80;;;16.80;74.10;;;;;;5270581;28;20184;-44
2022/07/27 00:34:30;;;;;;;4.00;1.50;;;16.70;73.70;;;;;;5271066;28;20269;-44
2022/07/27 00:37:00;;;;;;;3.90;1.67;;;16.70;73.60;;;;;;5262737;28;20206;-46
2022/07/27 00:39:31;;;;;;;3.50;1.50;;;16.60;72.60;;;;;;5272793;28;20190;-46
2022/07/27 00:42:02;;;;;;;2.60;1.33;;;16.50;73.40;;;;;;5270613;28;20193;-44
2022/07/27 00:44:33;;;;;;;11.13;1.13;;;16.30;74.10;;;;;;5269871;28;20185;-44
2022/07/27 00:47:03;;;;;;;5.63;1.33;;;16.20;74.70;;;;;;5270403;28;20201;-45
2022/07/27 00:49:34;;;;;;;1.03;1.00;;;16.10;75.40;;;;;;5268956;28;20597;-45
2022/07/27 00:52:06;;;;;;;2.90;1.37;;;16.00;75.90;;;;;;5269155;28;20178;-46
2022/07/27 00:54:37;;;;;;;4.93;1.30;;;15.90;75.90;;;;;;5259651;28;20256;-44
2022/07/27 00:57:11;;;;;;;3.53;1.37;;;15.80;76.20;;;;;;5265551;28;20986;-45
2022/07/27 00:59:42;;;;;;;2.83;1.53;;;15.70;77.00;;;;;;5262712;28;20438;-44
2022/07/27 01:02:13;;;;;;;5.73;1.57;;;15.60;77.40;;;;;;5269977;28;20431;-45
2022/07/27 01:04:44;;;;;;;3.30;1.33;;;15.60;77.90;;;;;;5263774;28;20473;-45
2022/07/27 01:07:15;;;;;;;3.47;1.17;;;15.60;78.00;;;;;;5260967;28;20293;-44
2022/07/27 01:09:57;;;;;;;1.90;0.97;;;15.50;78.40;;;;;;5264260;28;20572;-45
2022/07/27 01:12:30;;;;;;;2.30;1.20;;;15.40;79.00;;;;;;5260379;28;20883;-47
2022/07/27 01:15:01;;;;;;;3.27;1.70;;;15.40;79.30;;;;;;5268368;28;20538;-44
2022/07/27 01:17:32;;;;;;;2.60;0.93;;;15.40;79.50;;;;;;5267061;28;20542;-46
2022/07/27 01:20:04;;;;;;;5.00;1.50;;;15.40;79.70;;;;;;5264334;28;20216;-45
2022/07/27 01:22:34;;;;;;;4.20;1.27;;;15.40;80.30;;;;;;5269111;28;20443;-45
2022/07/27 01:25:05;;;;;;;4.63;1.33;;;15.40;80.30;;;;;;5260353;28;20504;-46
2022/07/27 01:27:36;;;;;;;1.47;1.33;;;15.30;80.90;;;;;;5266000;28;20202;-45
2022/07/27 01:30:25;;;;;;;3.00;1.50;;;15.20;81.20;;;;;;5283631;28;20681;-46
2022/07/27 01:33:00;;;;;;;2.77;1.40;;;15.20;81.90;;;;;;5263401;28;20235;-45
2022/07/27 01:35:31;;;;;;;3.60;1.07;;;15.20;82.30;;;;;;5264314;28;20465;-44
2022/07/27 01:38:03;;;;;;;4.90;1.60;;;15.10;83.40;;;;;;5262843;28;20437;-44
2022/07/27 01:40:35;;;;;;;4.87;1.17;;;15.10;83.50;;;;;;5258021;28;20536;-45
2022/07/27 01:43:06;;;;;;;5.27;1.50;;;15.00;83.80;;;;;;5267310;28;20426;-44
2022/07/27 01:45:38;;;;;;;3.33;1.40;;;15.00;84.80;;;;;;5264994;28;20453;-45
2022/07/27 01:48:09;;;;;;;1.90;1.40;;;15.00;85.80;;;;;;5271830;28;20196;-44
2022/07/27 01:50:40;;;;;;;4.20;1.37;;;14.90;86.50;;;;;;5269217;28;20565;-44
2022/07/27 01:53:10;;;;;;;6.17;1.17;;;14.90;87.90;;;;;;5265908;28;20469;-45
2022/07/27 01:55:41;;;;;;;1.37;0.83;;;14.80;89.00;;;;;;5260131;28;20206;-45
2022/07/27 01:58:12;;;;;;;6.20;1.30;;;14.70;89.10;;;;;;5250430;28;20182;-45
2022/07/27 02:00:42;;;;;;;1.40;1.30;;;14.70;90.20;;;;;;5260742;28;20201;-47
2022/07/27 02:03:13;;;;;;;2.80;1.30;;;14.60;90.90;;;;;;5270257;28;20192;-45
2022/07/27 02:05:44;;;;;;;5.70;1.53;;;14.60;91.60;;;;;;5271567;28;20212;-47
2022/07/27 02:08:14;;;;;;;2.70;1.43;;;14.50;92.10;;;;;;5269955;28;20194;-44
2022/07/27 02:13:34;;;;;;;2.50;1.37;;;14.40;93.70;;;;;;5263027;28;20173;-45
2022/07/27 02:16:05;;;;;;;5.27;1.30;;;14.30;94.70;;;;;;5274636;28;20430;-44
2022/07/27 02:18:35;;;;;;;1.73;0.93;;;14.40;95.20;;;;;;5264237;28;20251;-43
2022/07/27 02:21:06;;;;;;;1.57;1.20;;;14.30;96.00;;;;;;5265049;28;20265;-44
2022/07/27 02:23:39;;;;;;;5.03;1.70;;;14.30;96.50;;;;;;5255982;28;20182;-44
2022/07/27 02:26:09;;;;;;;2.40;1.03;;;14.30;97.20;;;;;;5257462;28;20481;-44
2022/07/27 02:28:40;;;;;;;3.90;1.20;;;14.30;97.70;;;;;;5269479;28;20440;-44
2022/07/27 02:31:11;;;;;;;8.93;1.33;;;14.30;98.00;;;;;;5275473;28;20276;-44
2022/07/27 02:33:41;;;;;;;5.50;1.43;;;14.20;98.40;;;;;;5269541;28;20247;-44
2022/07/27 02:36:12;;;;;;;1.87;1.17;;;14.20;98.80;;;;;;5262120;28;20189;-45
2022/07/27 02:38:42;;;;;;;2.47;1.60;;;14.10;99.30;;;;;;5257978;28;20190;-45
2022/07/27 02:41:13;;;;;;;1.90;0.97;;;14.10;99.90;;;;;;5269239;28;20238;-45
2022/07/27 02:43:43;;;;;;;5.57;1.37;;;14.10;99.90;;;;;;5268689;28;20189;-45
2022/07/27 02:46:14;;;;;;;2.60;1.10;;;14.10;99.90;;;;;;5266053;28;20359;-44
2022/07/27 02:48:45;;;;;;;2.90;1.33;;;14.10;99.90;;;;;;5262710;28;20186;-44
2022/07/27 02:51:15;;;;;;;5.80;1.47;;;14.00;99.90;;;;;;5249374;28;20190;-44
2022/07/27 02:53:46;;;;;;;1.80;1.17;;;14.00;99.90;;;;;;5259208;28;20455;-44
2022/07/27 02:56:17;;;;;;;3.80;1.43;;;14.00;99.90;;;;;;5266205;28;20197;-44
2022/07/27 02:58:47;;;;;;;1.17;1.07;;;14.00;99.90;;;;;;5285231;28;20173;-44
2022/07/27 03:01:18;;;;;;;9.83;2.07;;;14.00;99.90;;;;;;5262725;28;20174;-44
2022/07/27 03:03:48;;;;;;;4.47;1.37;;;14.00;99.90;;;;;;5251824;28;20203;-46
2022/07/27 03:06:19;;;;;;;4.03;1.50;;;14.00;99.90;;;;;;5260746;28;20202;-44
2022/07/27 03:08:49;;;;;;;5.33;1.20;;;13.90;99.90;;;;;;5261915;28;20178;-45
2022/07/27 03:11:20;;;;;;;4.60;1.53;;;13.90;99.90;;;;;;5250839;28;20263;-44
2022/07/27 03:13:51;;;;;;;3.93;1.37;;;13.80;99.90;;;;;;5260064;28;20182;-44
2022/07/27 03:16:21;;;;;;;4.10;1.47;;;13.80;99.90;;;;;;5269554;28;20315;-46
2022/07/27 03:18:52;;;;;;;1.20;1.10;;;13.80;99.90;;;;;;5279698;28;20214;-44
2022/07/27 03:21:23;;;;;;;3.37;1.73;;;13.80;99.90;;;;;;5266649;28;20645;-44
2022/07/27 03:23:54;;;;;;;6.17;1.20;;;13.80;99.90;;;;;;5268317;28;20234;-46
2022/07/27 03:26:24;;;;;;;6.87;1.10;;;13.80;99.90;;;;;;5279257;28;20467;-45
2022/07/27 03:28:56;;;;;;;1.60;1.00;;;13.80;99.90;;;;;;5271122;28;20182;-45
2022/07/27 03:31:27;;;;;;;2.73;0.70;;;13.80;99.90;;;;;;5262309;28;20706;-45
2022/07/27 03:33:57;;;;;;;1.10;1.00;;;13.80;99.90;;;;;;5259131;28;20404;-44
2022/07/27 03:36:28;;;;;;;4.30;1.60;;;13.80;99.90;;;;;;5264854;28;20222;-45
2022/07/27 03:38:58;;;;;;;4.70;1.30;;;13.90;99.90;;;;;;5263557;28;20239;-45
2022/07/27 03:41:29;;;;;;;6.30;1.20;;;13.90;99.90;;;;;;5260452;28;20297;-44
2022/07/27 03:43:59;;;;;;;2.47;1.23;;;14.00;99.90;;;;;;5263305;28;20265;-44
2022/07/27 03:46:30;;;;;;;4.90;1.40;;;14.00;99.90;;;;;;5258927;28;20308;-45
2022/07/27 03:49:01;;;;;;;2.20;1.17;;;14.00;99.90;;;;;;5272962;28;20204;-44
2022/07/27 03:51:31;;;;;;;4.93;1.37;;;14.00;99.90;;;;;;5273487;28;20271;-45
2022/07/27 03:54:02;;;;;;;2.37;0.97;;;14.00;99.90;;;;;;5267024;28;20213;-45
2022/07/27 03:56:33;;;;;;;7.53;1.50;;;14.00;99.90;;;;;;5266430;28;20208;-44
2022/07/27 03:59:04;;;;;;;2.73;1.20;;;14.00;99.90;;;;;;5259857;28;20197;-44
2022/07/27 04:01:34;;;;;;;3.03;1.10;;;14.00;99.90;;;;;;5269617;28;20234;-44
2022/07/27 04:04:05;;;;;;;2.50;1.00;;;14.10;99.90;;;;;;5279610;28;20446;-44
2022/07/27 04:06:36;;;;;;;3.77;1.47;;;14.00;99.90;;;;;;5271668;28;20205;-46
2022/07/27 04:09:06;;;;;;;1.30;0.83;;;14.00;99.90;;;;;;5271254;28;20212;-45
2022/07/27 04:11:37;;;;;;;8.60;1.23;;;14.00;99.90;;;;;;5277769;28;20177;-44
2022/07/27 04:14:07;;;;;;;1.70;0.97;;;14.00;99.90;;;;;;5274055;28;20210;-44
2022/07/27 04:16:38;;;;;;;1.87;1.33;;;13.90;99.90;;;;;;5268743;28;20662;-45
2022/07/27 04:19:09;;;;;;;1.30;1.10;;;13.90;99.90;;;;;;5269147;28;20262;-45
2022/07/27 04:21:39;;;;;;;1.30;0.90;;;14.00;99.90;;;;;;5266220;28;20185;-44
2022/07/27 04:24:10;;;;;;;1.47;1.37;;;13.90;99.90;;;;;;5272279;28;20189;-45
2022/07/27 04:26:40;;;;;;;1.13;0.90;;;13.90;99.90;;;;;;5250909;28;20304;-45
2022/07/27 04:29:12;;;;;;;13.17;1.43;;;14.00;99.90;;;;;;5266785;28;20202;-44
2022/07/27 04:31:42;;;;;;;1.47;1.17;;;14.00;99.90;;;;;;5272707;28;20175;-46
2022/07/27 04:34:13;;;;;;;2.37;1.10;;;14.00;99.90;;;;;;5269777;28;20775;-51
2022/07/27 04:36:43;;;;;;;9.00;1.50;;;14.00;99.90;;;;;;5262637;28;20649;-45
2022/07/27 04:39:14;;;;;;;4.10;1.00;;;14.00;99.90;;;;;;5259839;28;20192;-50
2022/07/27 04:41:45;;;;;;;10.53;1.80;;;14.00;99.90;;;;;;5260791;28;20189;-45
2022/07/27 04:44:16;;;;;;;7.97;1.30;;;14.00;99.90;;;;;;5276263;28;20199;-45
2022/07/27 04:46:47;;;;;;;2.20;1.13;;;14.00;99.90;;;;;;5270184;28;20443;-44
2022/07/27 04:49:17;;;;;;;3.60;1.03;;;14.10;99.90;;;;;;5271007;28;20201;-47
2022/07/27 04:51:48;;;;;;;1.80;1.30;;;14.20;99.90;;;;;;5265134;28;20174;-46
2022/07/27 04:54:18;;;;;;;7.03;1.60;;;14.30;99.90;;;;;;5256052;28;20699;-46
2022/07/27 04:56:49;;;;;;;5.20;1.70;;;14.40;99.90;;;;;;5265481;28;20233;-45
2022/07/27 04:59:20;;;;;;;6.37;2.03;;;14.50;99.90;;;;;;5274023;28;20204;-44
2022/07/27 05:01:50;;;;;;;3.60;1.37;;;14.80;99.90;;;;;;5267116;28;20649;-47
2022/07/27 05:04:21;;;;;;;3.70;0.93;;;15.10;99.90;;;;;;5270621;28;20280;-45
2022/07/27 05:06:52;;;;;;;5.80;1.43;;;15.80;99.90;;;;;;5267103;28;20201;-46
2022/07/27 05:09:22;;;;;;;6.13;1.60;;;16.30;99.90;;;;;;5255286;28;20301;-45
2022/07/27 05:11:53;;;;;;;13.53;1.40;;;17.00;98.70;;;;;;5264319;28;20186;-45
2022/07/27 05:14:23;;;;;;;1.33;0.90;;;17.90;94.80;;;;;;5267627;28;20182;-45
2022/07/27 05:16:54;;;;;;;3.13;1.53;;;18.90;90.50;;;;;;5266708;28;20561;-44
2022/07/27 05:19:25;;;;;;;10.73;2.20;;;20.60;79.40;;;;;;5265740;28;20217;-47
2022/07/27 05:21:55;;;;;;;3.13;1.37;;;21.50;67.80;;;;;;5267917;28;20212;-45
2022/07/27 05:24:26;;;;;;;4.87;1.70;;;22.60;62.80;;;;;;5262202;28;20217;-45
2022/07/27 05:26:56;;;;;;;1.00;0.90;;;23.30;56.10;;;;;;5264892;28;20233;-45
2022/07/27 05:29:27;;;;;;;0.80;0.80;;;22.80;54.20;;;;;;5263122;28;20218;-48
2022/07/27 05:31:57;;;;;;;4.67;1.40;;;21.50;55.50;;;;;;5265662;28;20190;-51
2022/07/27 05:34:28;;;;;;;5.10;1.60;;;20.20;58.30;;;;;;5268493;28;20177;-45
2022/07/27 05:36:59;;;;;;;4.07;1.50;;;19.40;62.00;;;;;;5264996;28;20198;-46
2022/07/27 05:39:29;;;;;;;2.00;0.97;;;18.70;64.30;;;;;;5267676;28;20182;-45
2022/07/27 05:42:00;;;;;;;3.97;1.43;;;18.60;65.40;;;;;;5270258;28;20251;-43
2022/07/27 05:44:31;;;;;;;0.63;0.63;;;18.90;65.60;;;;;;5264058;28;20183;-46
2022/07/27 05:47:01;;;;;;;3.47;1.40;;;19.00;66.30;;;;;;5267618;28;20263;-45
2022/07/27 05:49:32;;;;;;;4.00;1.50;;;19.30;66.70;;;;;;5265830;28;20572;-43
2022/07/27 05:52:03;;;;;;;2.10;1.10;;;20.30;64.40;;;;;;5271743;28;20181;-44
2022/07/27 05:54:34;;;;;;;5.97;1.23;;;21.80;62.20;;;;;;5271076;28;20276;-45
2022/07/27 05:57:04;;;;;;;2.00;1.30;;;23.90;56.40;;;;;;5262775;28;20209;-42
2022/07/27 05:59:35;;;;;;;1.90;1.70;;;24.70;52.90;;;;;;5263742;28;20185;-45
2022/07/27 06:02:07;;;;;;;3.83;1.40;;;25.40;50.50;;;;;;5268142;28;20186;-45
2022/07/27 06:04:38;;;;;;;1.73;1.60;;;25.20;48.40;;;;;;5262978;28;20673;-44
2022/07/27 06:10:00;;;;;;;4.93;1.20;;;27.70;44.50;;;;;;5260947;28;20267;-45
2022/07/27 06:12:39;;;;;;;6.30;1.67;;;28.30;41.00;;;;;;5264139;28;20485;-47
2022/07/27 06:15:12;;;;;;;1.23;0.93;;;29.30;39.50;;;;;;5263015;28;20455;-46
2022/07/27 06:17:45;;;;;;;3.60;1.10;;;29.00;38.20;;;;;;5268908;28;20427;-45
2022/07/27 06:20:16;;;;;;;0.70;0.70;;;29.00;38.10;;;;;;5262044;28;20446;-46
2022/07/27 06:22:48;;;;;;;3.43;2.13;;;29.70;37.50;;;;;;5269599;28;20927;-45
2022/07/27 06:25:19;;;;;;;2.40;1.30;;;30.20;36.00;;;;;;5265579;28;20267;-45
2022/07/27 06:27:50;;;;;;;3.17;1.27;;;30.30;35.60;;;;;;5253751;28;20440;-45
2022/07/27 06:30:21;;;;;;;1.60;1.23;;;30.70;35.80;;;;;;5261506;28;20990;-45
2022/07/27 06:32:52;;;;;;;6.73;1.73;;;30.60;34.50;;;;;;5268739;28;20174;-46
2022/07/27 06:35:23;;;;;;;5.20;1.60;;;30.50;33.80;;;;;;5269135;28;20516;-46
2022/07/27 06:37:53;;;;;;;4.80;1.33;;;28.80;35.00;;;;;;5266037;28;20179;-45
2022/07/27 06:40:24;;;;;;;3.63;1.00;;;26.70;38.00;;;;;;5259802;28;20561;-45
2022/07/27 06:42:54;;;;;;;2.60;1.00;;;24.90;41.30;;;;;;5268696;28;20310;-45
2022/07/27 06:45:26;;;;;;;3.53;1.13;;;23.90;43.50;;;;;;5267973;28;20218;-45
2022/07/27 06:47:56;;;;;;;4.13;1.30;;;23.00;45.10;;;;;;5261322;28;20216;-45
2022/07/27 06:50:27;;;;;;;2.13;1.23;;;22.20;46.10;;;;;;5269484;28;20491;-44
2022/07/27 06:52:58;;;;;;;1.40;1.20;;;22.00;46.80;;;;;;5267206;28;20201;-45
2022/07/27 06:55:28;;;;;;;4.40;1.10;;;21.90;47.50;;;;;;5259457;28;20474;-46
2022/07/27 06:57:59;;;;;;;4.93;1.50;;;21.70;47.90;;;;;;5268237;28;20621;-45
2022/07/27 07:00:30;;;;;;;3.03;1.00;;;21.80;48.40;;;;;;5266990;28;20239;-45
2022/07/27 07:03:02;;;;;;;3.07;1.00;;;21.80;48.70;;;;;;5267470;28;20581;-47
2022/07/27 07:05:44;;;;;;;1.23;1.00;;;22.00;48.70;;;;;;5258829;28;20202;-46
2022/07/27 07:08:15;;;;;;;4.23;1.17;;;22.10;48.20;;;;;;5262980;28;20435;-46
2022/07/27 07:10:45;;;;;;;1.80;1.07;;;22.30;48.00;;;;;;5263593;28;20470;-47
2022/07/27 07:13:16;;;;;;;4.10;1.00;;;22.60;47.40;;;;;;5253585;28;20473;-47
2022/07/27 07:15:47;;;;;;;1.43;1.33;;;22.50;48.10;;;;;;5259451;28;20201;-47
2022/07/27 07:18:17;;;;;;;4.57;2.07;;;22.80;48.10;;;;;;5260847;28;20181;-46
2022/07/27 07:20:48;;;;;;;1.80;1.23;;;23.00;47.80;;;;;;5266933;28;20242;-47
2022/07/27 07:23:18;;;;;;;3.07;1.20;;;22.80;47.10;;;;;;5262434;28;20291;-48
2022/07/27 07:25:49;;;;;;;1.40;0.73;;;23.10;47.30;;;;;;5256291;28;20217;-48
2022/07/27 07:28:21;;;;;;;7.43;1.37;;;23.50;46.70;;;;;;5267865;28;20185;-47
2022/07/27 07:30:51;;;;;;;1.17;0.93;;;24.50;45.40;;;;;;5266350;28;20234;-49
2022/07/27 07:33:22;;;;;;;2.57;1.37;;;24.60;44.30;;;;;;5265952;28;20931;-47
2022/07/27 07:35:52;;;;;;;1.60;1.07;;;24.00;44.80;;;;;;5262395;28;20672;-48
2022/07/27 07:38:23;;;;;;;3.67;0.97;;;23.40;46.30;;;;;;5263357;28;20174;-48
2022/07/27 07:40:54;;;;;;;1.80;1.20;;;22.40;47.40;;;;;;5265389;28;20186;-47
2022/07/27 07:43:24;;;;;;;3.80;1.30;;;22.10;48.80;;;;;;5266136;28;20517;-46
2022/07/27 07:45:55;;;;;;;1.33;0.80;;;22.30;47.80;;;;;;5265068;28;20603;-46
2022/07/27 07:48:26;;;;;;;3.87;1.27;;;22.20;46.60;;;;;;5267363;28;20195;-46
2022/07/27 07:50:56;;;;;;;1.07;0.87;;;23.00;45.50;;;;;;5265283;28;20213;-47
2022/07/27 07:53:27;;;;;;;5.07;1.10;;;22.90;43.90;;;;;;5266325;28;20201;-48
2022/07/27 07:55:58;;;;;;;1.13;0.97;;;22.80;44.80;;;;;;5265275;28;20200;-48
2022/07/27 07:58:30;;;;;;;1.27;1.17;;;22.70;45.00;;;;;;5248582;28;20263;-46
2022/07/27 08:01:00;;;;;;;1.00;0.93;;;22.80;45.00;;;;;;5260408;28;20428;-47
2022/07/27 08:03:31;;;;;;;2.40;1.80;;;22.50;44.80;;;;;;5254667;28;20452;-47
2022/07/27 08:06:02;;;;;;;3.57;0.90;;;22.40;45.80;;;;;;5246947;28;20221;-48
2022/07/27 08:08:33;;;;;;;4.57;1.40;;;21.40;45.00;;;;;;5263712;28;20186;-47
2022/07/27 08:11:03;;;;;;;2.77;0.90;;;20.40;46.30;;;;;;5264361;28;20228;-46
2022/07/27 08:13:34;;;;;;;1.47;0.70;;;20.00;47.80;;;;;;5263907;28;20525;-47
2022/07/27 08:16:04;;;;;;;2.87;1.10;;;19.90;48.00;;;;;;5260693;28;20198;-47
2022/07/27 08:18:35;;;;;;;1.07;1.00;;;19.70;48.90;;;;;;5261777;28;20260;-46
2022/07/27 08:21:05;;;;;;;1.63;1.10;;;19.70;49.70;;;;;;5266708;28;20208;-48
2022/07/27 08:23:37;;;;;;;5.07;0.80;;;19.80;49.80;;;;;;5261231;28;20224;-47
2022/07/27 08:26:08;;;;;;;1.30;0.73;;;19.80;48.00;;;;;;5264618;28;20693;-48
2022/07/27 08:28:38;;;;;;;1.60;0.90;;;20.00;48.70;;;;;;5260327;28;20481;-46
2022/07/27 08:31:09;;;;;;;1.27;0.80;;;20.50;47.40;;;;;;5265973;28;20201;-46
2022/07/27 08:33:40;;;;;;;4.03;0.70;;;21.30;45.60;;;;;;5264661;28;20294;-46
2022/07/27 08:36:10;;;;;;;1.60;0.70;;;21.50;45.30;;;;;;5264536;28;20244;-47
2022/07/27 08:38:41;;;;;;;8.97;1.20;;;20.70;45.30;;;;;;5258646;28;20550;-46
2022/07/27 08:41:14;;;;;;;5.70;1.30;;;20.20;46.30;;;;;;5269050;28;20213;-47
2022/07/27 08:43:47;;;;;;;1.63;1.00;;;20.50;46.90;;;;;;5265752;28;20243;-46
2022/07/27 08:46:19;;;;;;;8.80;1.23;;;20.90;45.10;;;;;;5269367;28;20444;-46
2022/07/27 08:48:51;;;;;;;2.10;1.03;;;20.80;45.90;;;;;;5265758;28;20452;-47
2022/07/27 08:51:23;;;;;;;2.10;1.17;;;20.40;45.60;;;;;;5261164;28;20467;-46
2022/07/27 08:53:54;;;;;;;1.33;0.80;;;20.10;46.90;;;;;;5265303;28;20458;-46
2022/07/27 08:56:26;;;;;;;2.63;1.10;;;20.10;48.00;;;;;;5266385;28;20866;-46
2022/07/27 08:58:56;;;;;;;5.27;1.23;;;20.10;48.70;;;;;;5261418;28;20854;-45
2022/07/27 09:01:30;;;;;;;2.97;0.90;;;20.30;49.00;;;;;;5262193;28;20467;-46
2022/07/27 09:04:00;;;;;;;1.43;0.97;;;20.50;48.50;;;;;;5260571;28;20186;-47
2022/07/27 09:06:43;;;;;;;9.67;1.30;;;21.20;47.70;;;;;;5263570;28;20525;-47
2022/07/27 09:09:17;;;;;;;1.60;1.00;;;21.10;46.40;;;;;;5267270;28;20603;-46
2022/07/27 09:12:04;;;;;;;1.30;1.10;;;21.50;45.60;;;;;;5269421;28;20440;-46
2022/07/27 09:14:37;;;;;;;2.57;1.00;;;21.60;45.60;;;;;;5268712;28;20944;-47
2022/07/27 09:17:26;;;;;;;1.60;0.83;;;21.50;46.50;;;;;;5270254;28;20438;-46
2022/07/27 09:20:02;;;;;;;6.93;1.37;;;21.50;46.20;;;;;;5268000;28;20412;-45
2022/07/27 09:22:46;;;;;;;1.00;0.73;;;21.10;45.80;;;;;;5269700;28;20518;-45
2022/07/27 09:25:33;;;;;;;1.27;0.90;;;20.60;46.80;;;;;;5269530;28;20471;-49
2022/07/27 09:28:03;;;;;;;5.93;1.00;;;20.60;48.10;;;;;;5261427;28;20439;-46
2022/07/27 09:30:40;;;;;;;2.73;1.30;;;20.90;48.00;;;;;;5266033;28;20460;-48
2022/07/27 09:33:14;;;;;;;2.77;1.20;;;21.00;48.00;;;;;;5258586;28;20184;-46
2022/07/27 09:35:58;;;;;;;1.73;1.00;;;21.00;47.20;;;;;;5268129;28;20456;-45
2022/07/27 09:38:28;;;;;;;5.20;1.17;;;20.70;48.30;;;;;;5270086;28;20964;-45
2022/07/27 09:41:00;;;;;;;2.10;1.30;;;20.80;48.30;;;;;;5272115;28;20423;-46
2022/07/27 09:43:47;;;;;;;5.10;1.20;;;20.90;47.90;;;;;;5264594;28;20196;-45
2022/07/27 09:46:35;;;;;;;3.57;2.27;;;21.00;47.00;;;;;;5259943;28;20829;-46
2022/07/27 09:49:24;;;;;;;1.10;0.83;;;21.20;46.80;;;;;;5269766;28;20868;-45
2022/07/27 09:51:56;;;;;;;7.67;1.47;;;20.80;45.10;;;;;;5259167;28;20428;-47
2022/07/27 09:54:27;;;;;;;1.80;1.10;;;20.60;46.50;;;;;;5270086;28;20435;-47
2022/07/27 09:57:02;;;;;;;3.87;1.03;;;20.40;46.40;;;;;;5269053;28;20816;-46
2022/07/27 09:59:32;;;;;;;1.87;1.33;;;20.80;46.60;;;;;;5268066;28;20443;-44
2022/07/27 10:02:04;;;;;;;1.93;1.47;;;21.50;45.80;;;;;;5269434;28;20444;-46
2022/07/27 10:04:34;;;;;;;2.47;2.23;;;21.60;44.90;;;;;;5251599;28;20190;-47
2022/07/27 10:07:05;;;;;;;25.93;13.93;;;21.50;44.50;;;;;;5260089;28;20855;-46
2022/07/27 10:09:36;;;;;;;18.27;9.60;;;21.10;45.50;;;;;;5268875;28;20643;-46
2022/07/27 10:12:08;;;;;;;3.53;3.23;;;21.10;45.60;;;;;;5258512;28;20515;-47
2022/07/27 10:14:39;;;;;;;3.27;2.93;;;21.00;45.50;;;;;;5260885;28;20436;-44
2022/07/27 10:17:09;;;;;;;4.20;1.50;;;20.70;45.70;;;;;;5263831;28;20508;-47
2022/07/27 10:19:49;;;;;;;8.23;1.87;;;20.80;45.90;;;;;;5268176;28;20181;-48
2022/07/27 10:22:47;;;;;;;0.93;0.90;;;20.70;45.90;;;;;;5256056;28;20248;-45
2022/07/27 10:25:19;;;;;;;1.07;0.97;;;20.80;46.80;;;;;;5259213;28;20535;-47
2022/07/27 10:28:09;;;;;;;3.73;3.27;;;20.70;46.20;;;;;;5263236;28;20432;-47
2022/07/27 10:30:40;;;;;;;7.93;3.40;;;20.60;47.00;;;;;;5257732;28;20464;-46
2022/07/27 10:33:42;;;;;;;1.83;1.70;;;20.40;47.00;;;;;;5264334;28;20451;-49
2022/07/27 10:36:18;;;;;;;6.60;1.53;;;20.60;47.30;;;;;;5266541;28;20205;-47
2022/07/27 10:38:56;;;;;;;2.10;1.20;;;20.80;46.80;;;;;;5265931;28;20470;-45
2022/07/27 10:41:34;;;;;;;2.93;0.90;;;20.80;46.60;;;;;;5264720;28;20409;-47
2022/07/27 10:44:15;;;;;;;1.03;1.03;;;21.00;46.90;;;;;;5265860;28;20887;-46
2022/07/27 10:47:02;;;;;;;1.83;1.30;;;21.20;46.90;;;;;;5268602;28;20459;-47
2022/07/27 10:49:36;;;;;;;3.73;0.87;;;21.50;47.10;;;;;;5258648;28;20459;-46
2022/07/27 10:52:39;;;;;;;3.97;1.50;;;21.70;45.40;;;;;;5263068;28;20804;-48
2022/07/27 10:55:31;;;;;;;1.37;0.80;;;22.00;46.30;;;;;;5250516;28;20519;-46
2022/07/27 10:58:08;;;;;;;1.17;1.00;;;22.20;45.50;;;;;;5267117;28;20431;-46
2022/07/27 11:00:50;;;;;;;2.67;1.50;;;21.80;45.40;;;;;;5264296;28;20471;-46
2022/07/27 11:03:22;;;;;;;2.13;1.10;;;21.90;46.20;;;;;;5260860;28;20959;-45
2022/07/27 11:06:00;;;;;;;1.67;1.57;;;21.60;45.60;;;;;;5254326;28;20515;-47
2022/07/27 11:08:33;;;;;;;2.63;1.00;;;21.30;45.80;;;;;;5264595;28;20545;-46
2022/07/27 11:11:05;;;;;;;4.10;3.50;;;20.80;47.40;;;;;;5267187;28;20557;-46
2022/07/27 11:13:36;;;;;;;1.63;1.43;;;20.40;48.10;;;;;;5264133;28;20435;-46
2022/07/27 11:16:09;;;;;;;2.57;0.90;;;20.30;48.70;;;;;;5265822;28;20462;-47
2022/07/27 11:18:42;;;;;;;2.33;1.60;;;20.20;49.10;;;;;;5267061;28;20223;-47
2022/07/27 11:21:29;;;;;;;5.80;1.30;;;20.10;49.00;;;;;;5265417;28;21134;-46
2022/07/27 11:24:13;;;;;;;14.57;1.53;;;20.30;48.90;;;;;;5267259;28;20439;-46
2022/07/27 11:26:53;;;;;;;2.20;1.20;;;20.50;48.80;;;;;;5255313;28;20487;-46
2022/07/27 11:29:25;;;;;;;2.80;1.40;;;20.90;49.50;;;;;;5265399;28;20469;-47
2022/07/27 11:31:58;;;;;;;1.73;1.17;;;21.50;47.80;;;;;;5258926;28;20454;-47
2022/07/27 11:34:31;;;;;;;1.50;1.40;;;21.80;46.70;;;;;;5256118;28;20427;-48
2022/07/27 11:37:11;;;;;;;2.90;2.23;;;22.40;46.40;;;;;;5255065;28;20633;-45
2022/07/27 11:39:41;;;;;;;5.80;2.93;;;22.50;44.80;;;;;;5255615;28;20439;-45
2022/07/27 11:42:13;;;;;;;11.57;5.90;;;22.20;44.80;;;;;;5263050;28;20945;-45
2022/07/27 11:44:45;;;;;;;10.53;3.50;;;22.20;45.10;;;;;;5265792;28;20242;-46
2022/07/27 11:47:17;;;;;;;6.00;2.37;;;21.70;45.10;;;;;;5265786;28;20471;-45
2022/07/27 11:49:47;;;;;;;9.33;4.57;;;21.40;46.60;;;;;;5267630;28;20504;-46
2022/07/27 11:52:18;;;;;;;6.10;2.13;;;21.20;47.30;;;;;;5266489;28;20535;-46
2022/07/27 11:54:51;;;;;;;3.70;2.00;;;21.30;47.40;;;;;;5262425;28;20174;-48
2022/07/27 11:57:30;;;;;;;1.90;1.60;;;21.30;46.20;;;;;;5266458;28;20265;-46
2022/07/27 12:00:01;;;;;;;2.20;1.10;;;21.10;45.10;;;;;;5261656;28;20458;-46
2022/07/27 12:02:31;;;;;;;2.23;1.13;;;21.10;45.00;;;;;;5267674;28;20411;-49
2022/07/27 12:05:09;;;;;;;2.87;1.57;;;21.40;45.40;;;;;;5264124;28;20192;-46
2022/07/27 12:07:42;;;;;;;5.83;2.37;;;21.30;45.00;;;;;;5261485;28;20177;-46
2022/07/27 12:10:13;;;;;;;2.97;1.90;;;21.50;45.60;;;;;;5265454;28;20466;-46
2022/07/27 12:12:47;;;;;;;4.50;1.43;;;21.60;45.50;;;;;;5266413;28;20428;-45
2022/07/27 12:15:19;;;;;;;3.03;1.50;;;21.50;44.70;;;;;;5260650;28;20212;-46
2022/07/27 12:17:56;;;;;;;3.23;1.20;;;21.50;44.70;;;;;;5266590;28;20772;-46
2022/07/27 12:20:35;;;;;;;16.50;4.60;;;21.80;45.00;;;;;;5270964;28;20423;-46
2022/07/27 12:23:07;;;;;;;5.80;3.10;;;22.00;44.60;;;;;;5271230;28;20789;-47
2022/07/27 12:25:40;;;;;;;5.57;1.60;;;22.20;44.60;;;;;;5267129;28;20540;-47
2022/07/27 12:28:14;;;;;;;7.57;3.63;;;22.20;44.00;;;;;;5270175;28;20516;-47
2022/07/27 12:30:50;;;;;;;6.00;3.53;;;22.40;44.00;;;;;;5269994;28;20827;-47
2022/07/27 12:33:26;;;;;;;3.73;1.30;;;22.50;43.50;;;;;;5268671;28;20923;-46
2022/07/27 12:35:58;;;;;;;3.27;1.53;;;22.30;43.10;;;;;;5267401;28;20473;-45
2022/07/27 12:38:38;;;;;;;3.63;1.27;;;22.20;43.40;;;;;;5270127;28;20418;-46
2022/07/27 12:41:09;;;;;;;1.30;0.93;;;22.10;44.10;;;;;;5266412;28;20450;-45
2022/07/27 12:43:40;;;;;;;1.50;1.23;;;22.30;43.90;;;;;;5265716;28;20500;-45
2022/07/27 12:46:12;;;;;;;5.03;1.40;;;22.00;43.80;;;;;;5269986;28;20459;-46
2022/07/27 12:48:42;;;;;;;5.70;1.10;;;22.20;44.10;;;;;;5270428;28;20641;-46
2022/07/27 12:51:20;;;;;;;6.50;2.50;;;22.30;44.40;;;;;;5264156;28;20834;-47
2022/07/27 12:53:51;;;;;;;1.63;1.30;;;22.50;43.30;;;;;;5255140;28;20256;-47
2022/07/27 12:56:22;;;;;;;2.83;1.10;;;22.80;43.00;;;;;;5262646;28;20522;-45
2022/07/27 12:59:00;;;;;;;3.53;3.27;;;23.00;42.40;;;;;;5265884;28;20234;-46
2022/07/27 13:01:31;;;;;;;4.30;1.40;;;23.00;41.90;;;;;;5269469;28;20177;-46
2022/07/27 13:04:01;;;;;;;1.53;1.07;;;22.60;41.70;;;;;;5265425;28;20429;-47
2022/07/27 13:06:32;;;;;;;4.10;1.50;;;22.40;42.40;;;;;;5260470;28;20697;-46
2022/07/27 13:09:03;;;;;;;3.60;1.03;;;22.20;42.90;;;;;;5269390;28;20177;-47
2022/07/27 13:11:33;;;;;;;2.60;1.70;;;22.30;42.70;;;;;;5251949;28;20533;-47
2022/07/27 13:14:06;;;;;;;5.67;2.10;;;22.10;42.00;;;;;;5269439;28;20641;-47
2022/07/27 13:16:36;;;;;;;5.90;2.47;;;22.10;42.80;;;;;;5270371;28;20300;-46
2022/07/27 13:19:07;;;;;;;5.03;1.40;;;21.90;42.50;;;;;;5268859;28;20514;-46